Shell, Wyoming
Current Conditions -  °F | °C
As of 1:53 PM on Thursday 20 Nov 2014 (Local Time) from KGEY Reporting Station
Clear Clear  
Wind Chill: 22°   Ceiling: Unl
Heat Index: 22°   Visibility: 10mi
Dew Point: 13°   Wind: 3mph
Humidity: 68%   Direction: 120°ESE
Pressure: 29.94"   Gusts: NA
Location:  44.54°N, 107.78°W
Report Text: KGEY 202053Z AUTO 12003KT 10SM CLR M06/M11 A2994 RMK AO2 SLP208 T10561106 56019
Loading
Personal Weather Stations






























Interactive Weather Map New forecast layout! Learn more

10-Day Weather Forecast

Advertisements
Track Severe Weather on mobile